createdAt,value
2018-01-28T00:00:35.917Z,16.07
2018-01-28T00:03:04.657Z,17.37
2018-01-28T00:05:40.174Z,13.80
2018-01-28T00:08:08.829Z,15.83
2018-01-28T00:10:37.556Z,17.30
2018-01-28T00:13:05.936Z,15.50
2018-01-28T00:15:34.270Z,15.73
2018-01-28T00:18:02.603Z,13.50
2018-01-28T00:20:30.998Z,12.40
2018-01-28T00:22:59.366Z,13.40
2018-01-28T00:25:27.711Z,10.67
2018-01-28T00:27:56.111Z,13.63
2018-01-28T00:30:24.443Z,12.10
2018-01-28T00:32:53.054Z,12.47
2018-01-28T00:35:21.436Z,14.10
2018-01-28T00:37:49.857Z,12.47
2018-01-28T00:40:18.416Z,10.23
2018-01-28T00:42:46.775Z,10.00
2018-01-28T00:45:15.110Z,11.57
2018-01-28T00:47:43.474Z,10.10
2018-01-28T00:50:12.088Z,10.33
2018-01-28T00:52:40.640Z,10.40
2018-01-28T00:55:08.977Z,8.87
2018-01-28T00:57:38.086Z,9.60
2018-01-28T01:00:06.420Z,11.60
2018-01-28T01:02:35.031Z,10.43
2018-01-28T01:05:03.452Z,9.77
2018-01-28T01:07:31.805Z,10.03
2018-01-28T01:10:00.121Z,11.33
2018-01-28T01:12:28.813Z,8.77
2018-01-28T01:14:57.148Z,9.20
2018-01-28T01:17:25.550Z,9.10
2018-01-28T01:19:53.989Z,8.67
2018-01-28T01:22:22.325Z,8.33
2018-01-28T01:24:50.662Z,8.00
2018-01-28T01:27:19.046Z,8.00
2018-01-28T01:29:47.374Z,8.10
2018-01-28T01:32:15.756Z,6.67
2018-01-28T01:34:44.520Z,6.37
2018-01-28T01:37:12.852Z,6.67
2018-01-28T01:39:41.178Z,5.80
2018-01-28T01:42:09.529Z,8.50
2018-01-28T01:44:37.864Z,6.30
2018-01-28T01:47:06.602Z,6.67
2018-01-28T01:49:35.726Z,6.97
2018-01-28T01:52:04.445Z,7.30
2018-01-28T01:54:32.773Z,6.43
2018-01-28T01:57:01.141Z,6.90
2018-01-28T01:59:29.554Z,5.80
2018-01-28T02:01:58.273Z,7.77
2018-01-28T02:04:26.722Z,8.20
2018-01-28T02:06:55.435Z,7.07
2018-01-28T02:09:23.792Z,6.00
2018-01-28T02:11:52.869Z,6.57
2018-01-28T02:14:21.217Z,7.50
2018-01-28T02:16:49.534Z,6.50
2018-01-28T02:19:18.325Z,8.50
2018-01-28T02:21:47.066Z,5.90
2018-01-28T02:24:15.410Z,6.47
2018-01-28T02:26:43.784Z,5.97
2018-01-28T02:29:12.097Z,6.83
2018-01-28T02:31:40.717Z,7.17
2018-01-28T02:34:09.182Z,6.00
2018-01-28T02:36:37.523Z,6.07
2018-01-28T02:39:05.866Z,5.03
2018-01-28T02:41:34.642Z,6.30
2018-01-28T02:44:02.965Z,5.93
2018-01-28T02:46:31.321Z,5.20
2018-01-28T02:48:59.675Z,5.40
2018-01-28T02:51:27.989Z,7.17
2018-01-28T02:53:56.348Z,5.33
2018-01-28T02:56:25.125Z,11.33
2018-01-28T02:58:53.909Z,5.40
2018-01-28T03:01:22.636Z,4.60
2018-01-28T03:03:51.017Z,6.20
2018-01-28T03:06:19.420Z,5.90
2018-01-28T03:08:47.755Z,6.20
2018-01-28T03:11:16.102Z,4.63
2018-01-28T03:13:44.454Z,6.37
2018-01-28T03:16:12.775Z,5.60
2018-01-28T03:18:41.365Z,6.67
2018-01-28T03:21:10.125Z,5.80
2018-01-28T03:23:38.449Z,5.10
2018-01-28T03:26:06.809Z,4.60
2018-01-28T03:28:35.650Z,4.93
2018-01-28T03:31:04.405Z,4.73
2018-01-28T03:33:32.782Z,5.37
2018-01-28T03:36:01.118Z,4.30
2018-01-28T03:38:29.461Z,4.30
2018-01-28T03:40:57.940Z,3.90
2018-01-28T03:43:26.417Z,6.07
2018-01-28T03:45:54.815Z,5.07
2018-01-28T03:48:23.280Z,4.00
2018-01-28T03:50:51.598Z,3.67
2018-01-28T03:53:20.169Z,5.17
2018-01-28T03:55:48.547Z,4.03
2018-01-28T03:58:16.871Z,5.80
2018-01-28T04:00:45.230Z,4.83
2018-01-28T04:03:14.092Z,5.20
2018-01-28T04:05:42.825Z,4.37
2018-01-28T04:08:11.154Z,4.40
2018-01-28T04:10:39.505Z,3.47
2018-01-28T04:13:07.845Z,5.47
2018-01-28T04:15:36.171Z,4.80
2018-01-28T04:18:04.540Z,5.00
2018-01-28T04:20:32.888Z,4.20
2018-01-28T04:23:01.273Z,4.13
2018-01-28T04:25:29.649Z,3.80
2018-01-28T04:27:57.990Z,4.17
2018-01-28T04:30:26.307Z,5.83
2018-01-28T04:32:54.656Z,4.03
2018-01-28T04:35:23.374Z,4.20
2018-01-28T04:37:51.781Z,3.70
2018-01-28T04:40:20.113Z,3.60
2018-01-28T04:42:48.451Z,4.70
2018-01-28T04:45:16.817Z,4.53
2018-01-28T04:47:45.146Z,4.53
2018-01-28T04:50:13.488Z,3.27
2018-01-28T04:52:41.889Z,3.87
2018-01-28T04:55:10.861Z,3.60
2018-01-28T04:57:39.177Z,3.60
2018-01-28T05:00:07.528Z,3.27
2018-01-28T05:02:35.877Z,3.77
2018-01-28T05:05:04.662Z,3.37
2018-01-28T05:07:33.277Z,4.37
2018-01-28T05:10:02.023Z,3.07
2018-01-28T05:12:30.641Z,4.30
2018-01-28T05:14:58.956Z,3.20
2018-01-28T05:17:27.324Z,4.40
2018-01-28T05:19:55.651Z,2.93
2018-01-28T05:22:24.027Z,3.17
2018-01-28T05:24:52.373Z,3.80
2018-01-28T05:27:21.014Z,2.97
2018-01-28T05:29:49.362Z,3.27
2018-01-28T05:32:17.752Z,3.07
2018-01-28T05:34:46.088Z,4.60
2018-01-28T05:37:14.497Z,3.20
2018-01-28T05:39:43.057Z,3.33
2018-01-28T05:42:11.469Z,2.97
2018-01-28T05:44:40.234Z,2.80
2018-01-28T05:47:08.589Z,3.13
2018-01-28T05:49:36.934Z,3.50
2018-01-28T05:52:05.289Z,3.00
2018-01-28T05:54:33.606Z,2.90
2018-01-28T05:57:02.332Z,5.10
2018-01-28T05:59:30.958Z,3.60
2018-01-28T06:01:59.276Z,3.97
2018-01-28T06:04:27.609Z,3.20
2018-01-28T06:06:59.369Z,3.70
2018-01-28T06:09:28.362Z,3.20
2018-01-28T06:11:56.725Z,3.27
2018-01-28T06:14:25.097Z,2.90
2018-01-28T06:16:53.702Z,2.80
2018-01-28T06:19:22.032Z,3.30
2018-01-28T06:21:50.426Z,3.20
2018-01-28T06:24:18.742Z,3.20
2018-01-28T06:26:47.483Z,3.40
2018-01-28T06:29:16.109Z,3.03
2018-01-28T06:31:44.866Z,2.93
2018-01-28T06:34:13.230Z,3.50
2018-01-28T06:36:41.856Z,3.30
2018-01-28T06:39:10.214Z,2.50
2018-01-28T06:41:38.563Z,2.60
2018-01-28T06:44:06.894Z,2.57
2018-01-28T06:46:35.278Z,2.40
2018-01-28T06:49:04.017Z,2.53
2018-01-28T06:51:32.334Z,2.73
2018-01-28T06:54:00.947Z,3.03
2018-01-28T06:56:29.272Z,2.70
2018-01-28T06:58:57.617Z,2.30
2018-01-28T07:01:26.001Z,1.80
2018-01-28T07:03:54.367Z,2.13
2018-01-28T07:06:22.721Z,3.30
2018-01-28T07:08:51.461Z,2.10
2018-01-28T07:11:19.809Z,2.20
2018-01-28T07:13:48.159Z,2.43
2018-01-28T07:16:16.511Z,1.90
2018-01-28T07:18:44.843Z,1.90
2018-01-28T07:21:13.303Z,1.80
2018-01-28T07:23:42.045Z,2.03
2018-01-28T07:26:10.361Z,1.80
2018-01-28T07:28:38.723Z,1.63
2018-01-28T07:31:07.101Z,2.20
2018-01-28T07:33:35.788Z,2.50
2018-01-28T07:36:04.171Z,2.00
2018-01-28T07:38:32.562Z,1.97
2018-01-28T07:41:01.282Z,1.90
2018-01-28T07:43:29.644Z,1.70
2018-01-28T07:45:58.019Z,1.40
2018-01-28T07:48:26.609Z,1.70
2018-01-28T07:50:55.057Z,1.40
2018-01-28T07:53:23.433Z,1.60
2018-01-28T07:55:52.012Z,1.67
2018-01-28T07:58:20.397Z,1.53
2018-01-28T08:00:49.055Z,1.73
2018-01-28T08:03:17.397Z,1.47
2018-01-28T08:05:45.716Z,2.83
2018-01-28T08:08:15.477Z,1.90
2018-01-28T08:10:59.602Z,1.60
2018-01-28T08:16:27.737Z,1.50
2018-01-28T08:18:56.109Z,1.53
2018-01-28T08:21:24.453Z,1.60
2018-01-28T08:23:53.179Z,1.80
2018-01-28T08:26:22.275Z,1.50
2018-01-28T08:28:56.640Z,1.33
2018-01-28T08:31:24.972Z,1.80
2018-01-28T08:33:53.319Z,2.13
2018-01-28T08:36:22.046Z,5.80
2018-01-28T08:38:50.393Z,3.97
2018-01-28T08:41:18.769Z,6.00
2018-01-28T08:43:47.211Z,4.17
2018-01-28T08:46:15.530Z,2.13
2018-01-28T08:48:43.934Z,1.83
2018-01-28T08:51:12.358Z,1.73
2018-01-28T08:53:40.736Z,1.33
2018-01-28T08:56:09.065Z,1.87
2018-01-28T08:58:37.404Z,5.43
2018-01-28T09:01:06.203Z,2.33
2018-01-28T09:03:34.545Z,2.73
2018-01-28T09:06:02.890Z,1.80
2018-01-28T09:08:31.614Z,1.90
2018-01-28T09:11:00.201Z,2.63
2018-01-28T09:13:28.514Z,1.90
2018-01-28T09:15:56.896Z,1.73
2018-01-28T09:18:25.312Z,2.10
2018-01-28T09:20:54.074Z,2.97
2018-01-28T09:23:22.454Z,1.73
2018-01-28T09:25:50.785Z,2.97
2018-01-28T09:28:19.131Z,1.97
2018-01-28T09:30:47.510Z,1.87
2018-01-28T09:33:16.139Z,2.73
2018-01-28T09:35:44.485Z,1.90
2018-01-28T09:38:12.878Z,4.00
2018-01-28T09:40:42.246Z,3.07
2018-01-28T09:43:10.945Z,2.50
2018-01-28T09:45:39.552Z,4.07
2018-01-28T09:48:08.411Z,2.03
2018-01-28T09:50:36.962Z,2.23
2018-01-28T09:53:05.274Z,2.77
2018-01-28T09:55:33.653Z,3.43
2018-01-28T09:58:02.029Z,3.93
2018-01-28T10:00:30.343Z,3.47
2018-01-28T10:02:59.143Z,4.10
2018-01-28T10:05:27.489Z,2.73
2018-01-28T10:07:55.826Z,4.17
2018-01-28T10:10:24.184Z,2.63
2018-01-28T10:12:52.547Z,3.17
2018-01-28T10:15:21.225Z,2.03
2018-01-28T10:17:49.950Z,3.30
2018-01-28T10:20:18.290Z,3.20
2018-01-28T10:22:47.109Z,3.77
2018-01-28T10:25:15.750Z,3.10
2018-01-28T10:27:44.067Z,3.17
2018-01-28T10:30:12.426Z,2.40
2018-01-28T10:32:41.151Z,2.57
2018-01-28T10:35:09.778Z,2.80
2018-01-28T10:37:38.225Z,2.67
2018-01-28T10:40:06.561Z,3.87
2018-01-28T10:42:35.400Z,3.97
2018-01-28T10:45:03.850Z,3.47
2018-01-28T10:47:32.215Z,2.40
2018-01-28T10:50:00.552Z,1.97
2018-01-28T10:52:28.911Z,2.10
2018-01-28T10:54:57.402Z,3.83
2018-01-28T10:57:26.242Z,3.37
2018-01-28T10:59:55.982Z,2.70
2018-01-28T11:02:25.112Z,4.53
2018-01-28T11:04:53.480Z,4.00
2018-01-28T11:07:21.948Z,2.80
2018-01-28T11:09:50.310Z,2.97
2018-01-28T11:12:19.570Z,3.50
2018-01-28T11:14:48.327Z,3.90
2018-01-28T11:17:16.793Z,3.70
2018-01-28T11:19:45.174Z,4.73
2018-01-28T11:22:13.882Z,2.53
2018-01-28T11:24:42.224Z,2.30
2018-01-28T11:27:10.845Z,3.17
2018-01-28T11:29:39.220Z,2.40
2018-01-28T11:32:07.588Z,2.93
2018-01-28T11:34:35.978Z,2.23
2018-01-28T11:37:04.316Z,10.30
2018-01-28T11:39:32.694Z,7.10
2018-01-28T11:42:01.074Z,11.63
2018-01-28T11:44:29.393Z,9.57
2018-01-28T11:46:57.728Z,12.50
2018-01-28T11:49:26.882Z,5.53
2018-01-28T11:51:55.649Z,8.27
2018-01-28T11:54:24.416Z,8.63
2018-01-28T11:56:52.794Z,7.83
2018-01-28T11:59:21.143Z,6.63
2018-01-28T12:01:49.526Z,6.77
2018-01-28T12:04:17.855Z,6.53
2018-01-28T12:06:46.609Z,6.50
2018-01-28T12:09:14.981Z,4.50
2018-01-28T12:11:43.347Z,5.30
2018-01-28T12:14:11.682Z,7.30
2018-01-28T12:16:40.434Z,5.20
2018-01-28T12:19:08.798Z,6.60
2018-01-28T12:21:37.531Z,6.27
2018-01-28T12:24:05.849Z,5.23
2018-01-28T12:26:34.238Z,8.30
2018-01-28T12:29:02.586Z,5.80
2018-01-28T12:31:30.936Z,6.13
2018-01-28T12:33:59.330Z,7.20
2018-01-28T12:36:27.662Z,5.73
2018-01-28T12:38:56.034Z,9.30
2018-01-28T12:41:24.377Z,5.50
2018-01-28T12:43:52.702Z,5.97
2018-01-28T12:46:21.076Z,5.67
2018-01-28T12:48:49.459Z,5.50
2018-01-28T12:51:17.830Z,6.80
2018-01-28T12:53:46.269Z,6.13
2018-01-28T12:56:14.674Z,7.00
2018-01-28T12:58:42.998Z,8.40
2018-01-28T13:01:11.796Z,5.63
2018-01-28T13:03:40.185Z,6.63
2018-01-28T13:06:08.534Z,4.80
2018-01-28T13:08:36.941Z,5.27
2018-01-28T13:11:05.338Z,10.30
2018-01-28T13:13:35.060Z,6.23
2018-01-28T13:16:03.638Z,4.67
2018-01-28T13:18:32.010Z,5.00
2018-01-28T13:21:00.426Z,5.03
2018-01-28T13:23:28.906Z,4.60
2018-01-28T13:25:57.370Z,4.50
2018-01-28T13:28:25.734Z,5.80
2018-01-28T13:30:54.115Z,14.13
2018-01-28T13:33:22.494Z,6.77
2018-01-28T13:35:51.133Z,7.03
2018-01-28T13:38:19.518Z,11.23
2018-01-28T13:40:48.359Z,5.80
2018-01-28T13:43:16.770Z,4.63
2018-01-28T13:45:45.209Z,6.43
2018-01-28T13:48:13.559Z,6.03
2018-01-28T13:50:42.312Z,9.73
2018-01-28T13:53:10.906Z,7.57
2018-01-28T13:55:39.322Z,6.50
2018-01-28T13:58:07.680Z,7.70
2018-01-28T14:00:36.408Z,8.50
2018-01-28T14:03:04.766Z,23.13
2018-01-28T14:05:33.109Z,9.83
2018-01-28T14:08:01.868Z,7.03
2018-01-28T14:10:30.248Z,6.97
2018-01-28T14:12:58.600Z,5.43
2018-01-28T14:15:26.949Z,4.87
2018-01-28T14:17:55.702Z,8.93
2018-01-28T14:20:24.041Z,12.93
2018-01-28T14:22:52.497Z,7.00
2018-01-28T14:25:20.877Z,9.90
2018-01-28T14:27:49.261Z,7.00
2018-01-28T14:30:17.630Z,5.43
2018-01-28T14:32:46.393Z,7.00
2018-01-28T14:35:14.851Z,9.50
2018-01-28T14:37:43.206Z,8.87
2018-01-28T14:40:11.573Z,8.13
2018-01-28T14:42:40.226Z,9.63
2018-01-28T14:45:08.989Z,11.63
2018-01-28T14:47:37.341Z,4.23
2018-01-28T14:50:05.686Z,5.80
2018-01-28T14:52:34.026Z,9.47
2018-01-28T14:55:02.493Z,8.00
2018-01-28T14:57:31.111Z,6.30
2018-01-28T14:59:59.854Z,8.17
2018-01-28T15:02:28.202Z,8.70
2018-01-28T15:04:56.630Z,5.77
2018-01-28T15:07:25.449Z,6.13
2018-01-28T15:09:54.172Z,7.27
2018-01-28T15:12:22.670Z,8.97
2018-01-28T15:14:51.011Z,5.07
2018-01-28T15:17:19.516Z,7.70
2018-01-28T15:19:47.934Z,8.37
2018-01-28T15:22:16.298Z,9.00
2018-01-28T15:24:45.073Z,7.10
2018-01-28T15:27:13.517Z,7.63
2018-01-28T15:29:41.900Z,6.13
2018-01-28T15:32:10.219Z,5.50
2018-01-28T15:34:38.592Z,6.57
2018-01-28T15:37:07.074Z,6.50
2018-01-28T15:39:35.475Z,6.20
2018-01-28T15:42:03.838Z,6.50
2018-01-28T15:44:32.188Z,5.33
2018-01-28T15:47:00.560Z,8.63
2018-01-28T15:49:28.948Z,5.90
2018-01-28T15:51:57.313Z,7.20
2018-01-28T15:54:25.661Z,7.47
2018-01-28T15:56:54.454Z,6.17
2018-01-28T15:59:23.179Z,7.50
2018-01-28T16:01:51.518Z,12.87
2018-01-28T16:04:20.293Z,7.27
2018-01-28T16:06:49.015Z,5.17
2018-01-28T16:09:17.348Z,5.50
2018-01-28T16:11:46.251Z,8.03
2018-01-28T16:14:15.340Z,5.40
2018-01-28T16:16:44.121Z,7.30
2018-01-28T16:19:12.456Z,6.37
2018-01-28T16:21:40.824Z,7.00
2018-01-28T16:24:09.218Z,7.70
2018-01-28T16:26:37.550Z,6.00
2018-01-28T16:29:06.312Z,5.30
2018-01-28T16:31:34.638Z,5.70
2018-01-28T16:34:03.059Z,7.83
2018-01-28T16:36:31.838Z,4.00
2018-01-28T16:39:00.178Z,9.43
2018-01-28T16:41:28.551Z,6.37
2018-01-28T16:43:56.877Z,6.00
2018-01-28T16:46:25.209Z,6.27
2018-01-28T16:48:53.588Z,6.50
2018-01-28T16:51:21.981Z,11.03
2018-01-28T16:53:50.310Z,9.40
2018-01-28T16:56:18.661Z,5.20
2018-01-28T16:58:47.273Z,7.50
2018-01-28T17:01:15.601Z,8.20
2018-01-28T17:03:43.923Z,9.60
2018-01-28T17:06:12.285Z,4.83
2018-01-28T17:08:40.651Z,7.43
2018-01-28T17:11:08.981Z,8.90
2018-01-28T17:13:37.407Z,7.83
2018-01-28T17:16:06.949Z,8.90
2018-01-28T17:18:35.687Z,9.87
2018-01-28T17:21:04.038Z,8.77
2018-01-28T17:23:32.472Z,9.60
2018-01-28T17:26:00.836Z,10.37
2018-01-28T17:28:29.186Z,11.27
2018-01-28T17:30:57.558Z,10.13
2018-01-28T17:33:25.903Z,9.93
2018-01-28T17:35:54.265Z,10.40
2018-01-28T17:38:22.946Z,11.43
2018-01-28T17:40:51.270Z,9.20
2018-01-28T17:43:19.742Z,14.20
2018-01-28T17:45:48.517Z,12.20
2018-01-28T17:48:16.878Z,14.00
2018-01-28T17:50:46.196Z,11.67
2018-01-28T17:53:14.970Z,10.17
2018-01-28T17:55:43.438Z,10.80
2018-01-28T17:58:11.834Z,14.20
2018-01-28T18:00:40.208Z,11.97
2018-01-28T18:03:08.613Z,15.43
2018-01-28T18:05:37.522Z,12.90
2018-01-28T18:08:05.966Z,14.20
2018-01-28T18:10:34.742Z,13.53
2018-01-28T18:13:03.138Z,12.13
2018-01-28T18:15:31.937Z,12.30
2018-01-28T18:18:00.301Z,11.50
2018-01-28T18:20:28.911Z,12.47
2018-01-28T18:22:57.306Z,13.70
2018-01-28T18:25:25.660Z,14.03
2018-01-28T18:27:54.026Z,14.37
2018-01-28T18:30:22.755Z,20.27
2018-01-28T18:32:51.093Z,12.43
2018-01-28T18:35:19.830Z,13.90
2018-01-28T18:37:48.228Z,13.43
2018-01-28T18:40:16.585Z,15.40
2018-01-28T18:42:44.998Z,14.77
2018-01-28T18:45:14.110Z,12.63
2018-01-28T18:47:42.898Z,12.20
2018-01-28T18:50:11.667Z,27.60
2018-01-28T18:52:40.048Z,56.10
2018-01-28T18:55:08.383Z,45.40
2018-01-28T18:57:36.738Z,49.87
2018-01-28T19:00:05.147Z,46.97
2018-01-28T19:02:33.508Z,41.80
2018-01-28T19:05:01.837Z,42.53
2018-01-28T19:07:30.218Z,33.77
2018-01-28T19:09:58.579Z,34.20
2018-01-28T19:12:27.060Z,25.50
2018-01-28T19:14:55.402Z,33.37
2018-01-28T19:17:23.761Z,25.10
2018-01-28T19:19:52.255Z,27.87
2018-01-28T19:22:20.656Z,24.03
2018-01-28T19:24:49.033Z,29.50
2018-01-28T19:27:17.381Z,27.53
2018-01-28T19:29:45.812Z,27.43
2018-01-28T19:32:14.297Z,23.97
2018-01-28T19:34:42.666Z,25.97
2018-01-28T19:37:11.372Z,24.73
2018-01-28T19:39:39.788Z,31.67
2018-01-28T19:42:08.446Z,20.80
2018-01-28T19:44:36.841Z,21.47
2018-01-28T19:47:05.181Z,19.70
2018-01-28T19:49:33.803Z,22.43
2018-01-28T19:52:02.201Z,20.77
2018-01-28T19:54:30.552Z,23.07
2018-01-28T19:56:59.380Z,20.17
2018-01-28T19:59:28.089Z,18.87
2018-01-28T20:01:56.490Z,16.00
2018-01-28T20:04:24.820Z,18.03
2018-01-28T20:06:53.244Z,19.23
2018-01-28T20:09:22.018Z,17.53
2018-01-28T20:11:50.523Z,12.77
2018-01-28T20:14:18.923Z,15.20
2018-01-28T20:16:48.012Z,15.50
2018-01-28T20:19:16.358Z,13.20
2018-01-28T20:21:44.742Z,24.83
2018-01-28T20:24:13.126Z,14.53
2018-01-28T20:26:41.484Z,16.60
2018-01-28T20:29:09.841Z,14.00
2018-01-28T20:31:38.696Z,12.03
2018-01-28T20:34:07.689Z,11.80
2018-01-28T20:36:36.042Z,33.40
2018-01-28T20:39:04.429Z,35.70
2018-01-28T20:41:32.767Z,24.00
2018-01-28T20:44:01.150Z,22.97
2018-01-28T20:46:29.628Z,22.13
2018-01-28T20:48:58.550Z,24.03
2018-01-28T20:51:27.242Z,19.53
2018-01-28T20:53:55.634Z,22.10
2018-01-28T20:56:25.015Z,21.30
2018-01-28T20:58:53.391Z,21.03
2018-01-28T21:01:21.754Z,21.07
2018-01-28T21:03:54.497Z,19.33
2018-01-28T21:06:22.883Z,19.37
2018-01-28T21:08:51.324Z,18.33
2018-01-28T21:11:20.042Z,17.53
2018-01-28T21:13:48.663Z,20.07
2018-01-28T21:16:17.090Z,15.10
2018-01-28T21:18:45.501Z,13.50
2018-01-28T21:21:15.625Z,13.37
2018-01-28T21:23:44.414Z,14.10
2018-01-28T21:26:13.729Z,12.13
2018-01-28T21:28:42.360Z,13.73
2018-01-28T21:31:10.738Z,12.37
2018-01-28T21:33:40.317Z,14.07
2018-01-28T21:36:09.116Z,12.03
2018-01-28T21:38:38.086Z,11.30
2018-01-28T21:41:06.449Z,12.60
2018-01-28T21:43:34.817Z,11.20
2018-01-28T21:46:03.453Z,11.23
2018-01-28T21:48:32.173Z,13.27
2018-01-28T21:51:00.817Z,11.93
2018-01-28T21:53:29.162Z,9.00
2018-01-28T21:55:57.501Z,9.93
2018-01-28T21:58:25.839Z,9.37
2018-01-28T22:00:54.589Z,10.13
2018-01-28T22:03:23.049Z,7.27
2018-01-28T22:05:51.404Z,7.93
2018-01-28T22:08:20.136Z,9.00
2018-01-28T22:10:48.625Z,8.13
2018-01-28T22:13:17.010Z,7.63
2018-01-28T22:15:45.703Z,7.97
2018-01-28T22:18:14.312Z,7.30
2018-01-28T22:20:42.710Z,6.33
2018-01-28T22:23:11.785Z,8.53
2018-01-28T22:25:40.565Z,6.50
2018-01-28T22:28:08.889Z,6.13
2018-01-28T22:30:37.286Z,6.60
2018-01-28T22:33:05.713Z,7.83
2018-01-28T22:35:34.074Z,5.87
2018-01-28T22:38:02.462Z,4.90
2018-01-28T22:40:30.778Z,4.43
2018-01-28T22:42:59.124Z,5.70
2018-01-28T22:45:27.854Z,4.50
2018-01-28T22:47:56.490Z,5.40
2018-01-28T22:50:24.847Z,4.80
2018-01-28T22:52:53.212Z,5.63
2018-01-28T22:55:21.558Z,4.30
2018-01-28T22:57:49.897Z,4.00
2018-01-28T23:00:18.262Z,4.30
2018-01-28T23:02:47.187Z,5.00
2018-01-28T23:05:16.056Z,3.80
2018-01-28T23:07:44.532Z,3.60
2018-01-28T23:10:12.853Z,3.03
2018-01-28T23:12:41.238Z,3.30
2018-01-28T23:15:09.580Z,3.50
2018-01-28T23:17:38.322Z,3.73
2018-01-28T23:20:06.717Z,3.43
2018-01-28T23:22:35.095Z,4.17
2018-01-28T23:25:03.415Z,3.60
2018-01-28T23:27:31.769Z,3.63
2018-01-28T23:30:00.175Z,3.03
2018-01-28T23:32:28.502Z,3.07
2018-01-28T23:34:56.883Z,3.20
2018-01-28T23:37:25.225Z,2.73
2018-01-28T23:39:53.857Z,2.73
2018-01-28T23:42:22.204Z,3.73
2018-01-28T23:44:50.540Z,2.70
2018-01-28T23:47:19.272Z,2.37
2018-01-28T23:49:47.638Z,2.40
2018-01-28T23:52:15.975Z,2.30
2018-01-28T23:54:44.353Z,2.30
2018-01-28T23:57:13.142Z,2.20
2018-01-28T23:59:41.493Z,2.13
